Aérodrome :
LOGIN :

S'inscrire | Disclaimer

   EN    FR    IT 

 










Légende :    VFR   VFR Marginal   IFR   IFR Intensif   IFR Très Intensif
Visi : 
Plafond : 
>= 8 km
>= 3000ft
5 à 8 km
1000 à 3000 ft
1500m à 5 km
500 à 1000 ft
800 à 1500m
200 à 500 ft
< 800m
< 200 ft
Symboles :   Orages  Brouillard  Fortes neiges  Fortes précipitations  Vent > 20 kt
SIGMETs :   Divers  Orages  Givrage  Turbulence  Onde Orograph.  Cendres Volcan.







- Altitude de l'aérodrome : 3 ft
- Code IATA : DHR


EHKD - Den Helder De Kooy

METARs EXPIRÉS :
  • 241425Z AUTO 25011KT 9999 OVC021 18/12 Q1012 WHT 25014KT 9999 SCT025 BKN035
  • 241355Z AUTO 25010KT 220V280 9999 BKN023 OVC031 18/11 Q1012 WHT 25014KT 9999 SCT025 BKN035
  • 241338Z AUTO 25010KT 200V280 9999 OVC024 18/12 Q1012 WHT 25014KT 9999 SCT025 BKN035
  • 241325Z AUTO 25011KT 220V280 9999 OVC024 18/12 Q1012 WHT 25014KT 9999 SCT025 BKN035
  • 241312Z AUTO 25012KT 9999 OVC024 18/12 Q1012 WHT 25014KT 9999 SCT025 BKN035
  • 241308Z AUTO 25012KT 9999 OVC025 18/12 Q1012 BLU 25014KT 9999 SCT025 BKN035
  • 241255Z AUTO 26013KT 230V290 9999 BKN025 OVC045 18/13 Q1012 BLU 25014KT 9999 SCT025 BKN035
  • 241225Z AUTO 26012KT 230V290 9999 BKN027 BKN031 OVC045 18/13 Q1012 BLU 25014KT 9999 FEW012 SCT020 BKN030
  • 241155Z AUTO 27014KT 230V300 9999 OVC027 18/12 Q1012 BLU 24016KT 9999 FEW012 SCT020 BKN030

Prévision TAF périmée.
Pas de NOTAMs connus pour ce terrain.



MET'MAP, la Météo Aéronautique d'un coup d'oeil ! - Copyright ORBIFLY Décembre 2007 - Disclaimer

ORBIFLY MET'MAP TEAM :

Programmation & Développement : Alexandra Zaïnal
Conception & Développement : Baudouin d'Aumeries
Co-Programmation & Développement : Marc-Olivier Méhu
Soutien technique & logistique : Manuel Goepfert

Contact : metmap@orbifly.com




SOURCES & CREDITS :

   NOAA